ADDS METAR Data INFO
IDs: Format: Raw Decoded Include TAF

Data at: 0102 UTC 21 Oct 2017

KSZT 210055Z AUTO 00000KT 10SM OVC043 08/05 A2971 RMK AO2
KSZT 210035Z AUTO 16006KT 10SM SCT045 OVC070 08/04 A2971 RMK AO2
KSZT 210015Z AUTO 00000KT 10SM SCT070 08/03 A2971 RMK AO2
KSZT 202355Z AUTO 20003KT 10SM SCT031 SCT039 BKN070 09/03 A2970 RMK AO2
KSZT 202335Z AUTO 18005KT 10SM BKN029 BKN038 OVC060 08/05 A2969 RMK AO2
KSZT 202315Z AUTO 19006KT 10SM BKN027 BKN032 OVC046 08/04 A2968 RMK AO2
KSZT 202255Z AUTO 20005KT 10SM SCT036 BKN043 OVC049 10/04 A2967 RMK AO2
KSZT 202235Z AUTO 22011KT 10SM SCT030 SCT036 OVC043 08/04 A2967 RMK AO2
KSZT 202215Z AUTO 21005KT 10SM SCT026 OVC043 08/05 A2965 RMK AO2
KSZT 202155Z AUTO 22003KT 10SM BKN026 OVC030 07/04 A2964 RMK AO2
KSZT 202135Z AUTO 21003KT 10SM SCT022 OVC028 07/05 A2964 RMK AO2
KSZT 202115Z AUTO 00000KT 10SM BKN022 OVC028 07/05 A2963 RMK AO2
KSZT 202055Z AUTO 25003KT 10SM OVC025 07/05 A2961 RMK AO2
KSZT 202035Z AUTO 23005KT 10SM SCT020 OVC026 06/05 A2961 RMK AO2
KSZT 202015Z AUTO 00000KT 10SM BKN023 OVC028 06/05 A2961 RMK AO2
KSZT 201955Z AUTO 23003KT 10SM -DZ BKN020 OVC025 06/05 A2961 RMK AO2
KSZT 201935Z AUTO 24003KT 10SM SCT016 OVC023 06/05 A2961 RMK AO2
KSZT 201915Z AUTO 24003KT 10SM OVC023 06/05 A2961 RMK AO2
KSZT 201855Z AUTO 22003KT 10SM -DZ OVC019 06/05 A2961 RMK AO2
KSZT 201835Z AUTO 22005KT 10SM OVC019 06/05 A2960 RMK AO2
KSZT 201815Z AUTO 21004KT 10SM DZ OVC019 06/05 A2958 RMK AO2
KSZT 201755Z AUTO 21007KT 10SM OVC021 06/05 A2958 RMK AO2
KSZT 201735Z AUTO 20004KT 10SM OVC019 06/05 A2957 RMK AO2
KSZT 201715Z AUTO 20005KT 10SM DZ OVC019 06/05 A2956 RMK AO2
KSZT 201655Z AUTO 20006KT 10SM -RA BKN019 OVC024 06/05 A2956 RMK AO2
KSZT 201635Z AUTO 19004KT 7SM -RA BKN017 OVC023 06/05 A2954 RMK AO2
KSZT 201615Z AUTO 21004KT 10SM -RA SCT014 OVC023 06/05 A2954 RMK AO2
KSZT 201555Z AUTO 20003KT 7SM -RA SCT014 OVC021 06/05 A2954 RMK AO2
KSZT 201535Z AUTO 20003KT 10SM RA BKN014 OVC021 05/05 A2953 RMK AO2
KSZT 201515Z AUTO 22005KT 10SM RA SCT014 OVC020 06/05 A2952 RMK AO2
KSZT 201455Z AUTO 20005KT 10SM RA SCT014 OVC021 06/05 A2951 RMK AO2
KSZT 201435Z AUTO 21004KT 7SM -RA BKN021 OVC027 06/05 A2951 RMK AO2
KSZT 201415Z AUTO 21006KT 10SM RA OVC025 06/05 A2950 RMK AO2
KSZT 201355Z AUTO 21007KT 10SM DZ OVC025 06/05 A2949 RMK AO2
KSZT 201335Z AUTO 21005KT 10SM RA SCT016 OVC025 06/05 A2949 RMK AO2
KSZT 201315Z AUTO 22004KT 10SM RA BKN016 BKN023 OVC027 06/06 A2949 RMK AO2
KSZT 201255Z AUTO 20004KT 10SM DZ BKN018 OVC026 06/06 A2949 RMK AO2
KSZT 201235Z AUTO 20004KT 10SM DZ SCT020 BKN030 OVC035 06/06 A2949 RMK AO2
KSZT 201215Z AUTO 20004KT 10SM DZ SCT012 BKN024 OVC028 06/06 A2949 RMK AO2
KSZT 201155Z AUTO 21004KT 10SM RA OVC012 07/06 A2949 RMK AO2
KSZT 201135Z AUTO 23006KT 7SM RA BKN014 OVC019 07/06 A2949 RMK AO2
KSZT 201115Z AUTO 23007KT 10SM -RA SCT013 SCT018 OVC023 07/06 A2948 RMK AO2
KSZT 201055Z AUTO 20004KT 10SM DZ SCT021 BKN025 OVC032 07/06 A2947 RMK AO2
KSZT 201035Z AUTO 21003KT 10SM RA BKN027 BKN039 OVC047 07/07 A2947 RMK AO2
KSZT 201015Z AUTO 20004KT 10SM RA SCT024 BKN031 OVC045 07/07 A2947 RMK AO2
KSZT 200955Z AUTO 23003KT 10SM -RA SCT021 BKN028 OVC034 07/07 A2948 RMK AO2
KSZT 200935Z AUTO 21004KT 10SM -RA SCT029 BKN034 OVC044 07/07 A2948 RMK AO2
KSZT 200915Z AUTO 20006KT 10SM -RA SCT032 SCT038 OVC048 07/06 A2948 RMK AO2
KSZT 200855Z AUTO 22006KT 10SM -RA SCT035 OVC050 07/07 A2947 RMK AO2
KSZT 200835Z AUTO 21005KT 10SM DZ SCT035 SCT042 OVC050 08/07 A2947 RMK AO2
KSZT 200815Z AUTO 21007KT 10SM RA OVC050 08/07 A2946 RMK AO2
KSZT 200755Z AUTO 23006KT 10SM RA OVC050 08/07 A2946 RMK AO2
KSZT 200735Z AUTO 22005KT 10SM RA OVC050 08/07 A2947 RMK AO2
KSZT 200715Z AUTO 23005KT 10SM -RA OVC046 08/08 A2947 RMK AO2
KSZT 200655Z AUTO 19004KT 10SM -RA OVC040 08/08 A2947 RMK AO2
KSZT 200635Z AUTO 00000KT 10SM -RA BKN030 OVC035 08/08 A2947 RMK AO2
KSZT 200615Z AUTO 20003KT 10SM RA BKN028 OVC035 08/08 A2948 RMK AO2
KSZT 200555Z AUTO 19003KT 10SM DZ BKN037 OVC043 08/08 A2948 RMK AO2
KSZT 200535Z AUTO 00000KT 10SM RA BKN041 OVC050 08/08 A2949 RMK AO2
KSZT 200515Z AUTO 00000KT 10SM DZ SCT042 OVC050 08/08 A2950 RMK AO2
KSZT 200455Z AUTO 00000KT 10SM -RA SCT040 BKN047 OVC060 08/08 A2950 RMK AO2
KSZT 200435Z AUTO 00000KT 10SM RA SCT040 SCT049 BKN060 08/08 A2950 RMK AO2
KSZT 200415Z AUTO 00000KT 10SM -DZ BKN065 BKN075 08/08 A2950 RMK AO2
KSZT 200355Z AUTO 00000KT 10SM -DZ BKN075 OVC090 10/08 A2950 RMK AO2
KSZT 200335Z AUTO 00000KT 10SM SCT075 BKN090 09/08 A2952 RMK AO2
KSZT 200315Z AUTO 00000KT 10SM -DZ SCT055 BKN070 BKN085 10/08 A2952 RMK AO2
KSZT 200255Z AUTO 00000KT 10SM -RA SCT045 BKN070 OVC090 10/08 A2952 RMK AO2
KSZT 200235Z AUTO 00000KT 10SM SCT047 BKN090 BKN110 09/08 A2953 RMK AO2
KSZT 200215Z AUTO 02003KT 10SM SCT049 SCT055 BKN110 09/08 A2953 RMK AO2
KSZT 200155Z AUTO 00000KT 10SM SCT055 SCT065 BKN090 10/09 A2954 RMK AO2
KSZT 200135Z AUTO 00000KT 10SM -RA SCT055 SCT080 BKN090 10/08 A2953 RMK AO2
KSZT 200115Z AUTO 00000KT 10SM -RA OVC090 10/08 A2953 RMK AO2
KSZT 200055Z AUTO 33003KT 10SM OVC090 10/08 A2952 RMK AO2
KSZT 200035Z AUTO 00000KT 10SM OVC090 10/08 A2953 RMK AO2
KSZT 200015Z AUTO 00000KT 10SM BKN090 11/08 A2954 RMK AO2
KSZT 192355Z AUTO 00000KT 10SM OVC090 12/06 A2954 RMK AO2
KSZT 192335Z AUTO 00000KT 10SM OVC090 12/07 A2954 RMK AO2
KSZT 192315Z AUTO 00000KT 10SM OVC090 13/06 A2955 RMK AO2
KSZT 192255Z AUTO 22003KT 10SM OVC090 13/06 A2956 RMK AO2
KSZT 192235Z AUTO 22003KT 10SM OVC090 13/06 A2956 RMK AO2
KSZT 192215Z AUTO 25003KT 10SM OVC090 13/06 A2957 RMK AO2
KSZT 192155Z AUTO 24003KT 10SM OVC090 13/06 A2957 RMK AO2
KSZT 192135Z AUTO 23003KT 10SM OVC090 13/06 A2958 RMK AO2
KSZT 192115Z AUTO 24005KT 10SM SCT090 13/06 A2959 RMK AO2
KSZT 192055Z AUTO 23003KT 10SM SCT080 13/06 A2959 RMK AO2
KSZT 192035Z AUTO 25004KT 10SM BKN080 13/06 A2959 RMK AO2
KSZT 192015Z AUTO 23004KT 10SM OVC080 13/07 A2960 RMK AO2
KSZT 191955Z AUTO 22004KT 10SM OVC080 12/07 A2961 RMK AO2
KSZT 191935Z AUTO 20003KT 10SM OVC080 12/07 A2961 RMK AO2
KSZT 191915Z AUTO 00000KT 10SM OVC080 12/06 A2962 RMK AO2
KSZT 191855Z AUTO 20004KT 10SM OVC070 12/07 A2963 RMK AO2
KSZT 191835Z AUTO 19005KT 10SM OVC070 11/07 A2963 RMK AO2
KSZT 191815Z AUTO 18004KT 10SM SCT060 OVC070 11/08 A2964 RMK AO2
KSZT 191755Z AUTO 23005KT 10SM SCT060 OVC070 11/07 A2964 RMK AO2
KSZT 191735Z AUTO 27004KT 10SM SCT050 OVC070 10/08 A2964 RMK AO2
KSZT 191715Z AUTO 22004KT 10SM SCT050 OVC070 11/07 A2964 RMK AO2
KSZT 191655Z AUTO 21003KT 10SM -DZ SCT055 OVC070 10/07 A2964 RMK AO2
KSZT 191635Z AUTO 19005KT 10SM OVC055 11/07 A2965 RMK AO2
KSZT 191615Z AUTO 22004KT 10SM RA OVC055 10/07 A2965 RMK AO2
KSZT 191555Z AUTO 20005KT 10SM -RA SCT055 OVC070 08/08 A2965 RMK AO2
KSZT 191535Z AUTO 00000KT 10SM -RA OVC055 08/08 A2964 RMK AO2
KSZT 191515Z AUTO 00000KT 10SM OVC065 08/08 A2964 RMK AO2
KSZT 191455Z AUTO 00000KT 10SM OVC065 08/08 A2963 RMK AO2
KSZT 191435Z AUTO 00000KT 10SM OVC065 08/08 A2963 RMK AO2
KSZT 191415Z AUTO 00000KT 10SM OVC065 08/08 A2963 RMK AO2
KSZT 191355Z AUTO 00000KT 10SM OVC065 08/08 A2964 RMK AO2
KSZT 191335Z AUTO 00000KT 10SM OVC065 08/08 A2964 RMK AO2
KSZT 191315Z AUTO 00000KT 10SM -DZ OVC065 08/08 A2964 RMK AO2